sensor_id;sensor_type;location;lat;lon;timestamp;temperature;humidity
21811;DHT22;11067;48.788;9.208;2022-08-25T00:00:31;21.40;99.90
21811;DHT22;11067;48.788;9.208;2022-08-25T00:02:57;21.30;99.90
21811;DHT22;11067;48.788;9.208;2022-08-25T00:05:27;21.30;99.90
21811;DHT22;11067;48.788;9.208;2022-08-25T00:07:53;21.20;99.90
21811;DHT22;11067;48.788;9.208;2022-08-25T00:10:19;21.30;99.90
21811;DHT22;11067;48.788;9.208;2022-08-25T00:12:45;21.20;99.90
21811;DHT22;11067;48.788;9.208;2022-08-25T00:15:11;21.20;99.90
21811;DHT22;11067;48.788;9.208;2022-08-25T00:17:37;21.20;99.90
21811;DHT22;11067;48.788;9.208;2022-08-25T00:20:04;21.10;99.90
21811;DHT22;11067;48.788;9.208;2022-08-25T00:22:30;21.10;99.90
21811;DHT22;11067;48.788;9.208;2022-08-25T00:24:56;21.20;99.90
21811;DHT22;11067;48.788;9.208;2022-08-25T00:27:21;21.10;99.90
21811;DHT22;11067;48.788;9.208;2022-08-25T00:29:47;21.10;99.90
21811;DHT22;11067;48.788;9.208;2022-08-25T00:32:12;21.10;99.90
21811;DHT22;11067;48.788;9.208;2022-08-25T00:34:38;21.00;99.90
21811;DHT22;11067;48.788;9.208;2022-08-25T00:37:06;20.90;99.90
21811;DHT22;11067;48.788;9.208;2022-08-25T00:39:33;20.90;99.90
21811;DHT22;11067;48.788;9.208;2022-08-25T00:42:00;20.90;99.90
21811;DHT22;11067;48.788;9.208;2022-08-25T00:44:28;20.90;99.90
21811;DHT22;11067;48.788;9.208;2022-08-25T00:46:57;20.80;99.90
21811;DHT22;11067;48.788;9.208;2022-08-25T00:49:38;20.80;99.90
21811;DHT22;11067;48.788;9.208;2022-08-25T00:52:25;20.80;99.90
21811;DHT22;11067;48.788;9.208;2022-08-25T00:54:55;20.80;99.90
21811;DHT22;11067;48.788;9.208;2022-08-25T00:57:28;20.70;99.90
21811;DHT22;11067;48.788;9.208;2022-08-25T00:59:54;20.60;99.90
21811;DHT22;11067;48.788;9.208;2022-08-25T01:02:20;20.60;99.90
21811;DHT22;11067;48.788;9.208;2022-08-25T01:04:46;20.60;99.90
21811;DHT22;11067;48.788;9.208;2022-08-25T01:07:12;20.50;99.90
21811;DHT22;11067;48.788;9.208;2022-08-25T01:09:39;20.60;99.90
21811;DHT22;11067;48.788;9.208;2022-08-25T01:12:05;20.50;99.90
21811;DHT22;11067;48.788;9.208;2022-08-25T01:14:31;20.50;99.90
21811;DHT22;11067;48.788;9.208;2022-08-25T01:16:58;20.50;99.90
21811;DHT22;11067;48.788;9.208;2022-08-25T01:19:25;20.40;99.90
21811;DHT22;11067;48.788;9.208;2022-08-25T01:21:52;20.40;99.90
21811;DHT22;11067;48.788;9.208;2022-08-25T01:24:44;20.30;99.90
21811;DHT22;11067;48.788;9.208;2022-08-25T01:27:11;20.30;99.90
21811;DHT22;11067;48.788;9.208;2022-08-25T01:29:37;20.30;99.90
21811;DHT22;11067;48.788;9.208;2022-08-25T01:32:07;20.30;99.90
21811;DHT22;11067;48.788;9.208;2022-08-25T01:34:35;20.30;99.90
21811;DHT22;11067;48.788;9.208;2022-08-25T01:37:02;20.30;99.90
21811;DHT22;11067;48.788;9.208;2022-08-25T01:39:29;20.30;99.90
21811;DHT22;11067;48.788;9.208;2022-08-25T01:44:51;20.20;99.90
21811;DHT22;11067;48.788;9.208;2022-08-25T01:47:17;20.10;99.90
21811;DHT22;11067;48.788;9.208;2022-08-25T01:49:43;20.10;99.90
21811;DHT22;11067;48.788;9.208;2022-08-25T01:52:20;20.10;99.90
21811;DHT22;11067;48.788;9.208;2022-08-25T01:54:48;20.10;99.90
21811;DHT22;11067;48.788;9.208;2022-08-25T01:57:14;20.00;99.90
21811;DHT22;11067;48.788;9.208;2022-08-25T01:59:40;20.10;99.90
21811;DHT22;11067;48.788;9.208;2022-08-25T02:02:06;20.10;99.90
21811;DHT22;11067;48.788;9.208;2022-08-25T02:04:32;20.00;99.90
21811;DHT22;11067;48.788;9.208;2022-08-25T02:07:00;20.00;99.90
21811;DHT22;11067;48.788;9.208;2022-08-25T02:09:26;19.90;99.90
21811;DHT22;11067;48.788;9.208;2022-08-25T02:11:52;19.80;99.90
21811;DHT22;11067;48.788;9.208;2022-08-25T02:14:18;19.70;99.90
21811;DHT22;11067;48.788;9.208;2022-08-25T02:16:46;19.70;99.90
21811;DHT22;11067;48.788;9.208;2022-08-25T02:19:14;19.70;99.90
21811;DHT22;11067;48.788;9.208;2022-08-25T02:21:40;19.70;99.90
21811;DHT22;11067;48.788;9.208;2022-08-25T02:24:06;19.60;99.90
21811;DHT22;11067;48.788;9.208;2022-08-25T02:26:32;19.60;99.90
21811;DHT22;11067;48.788;9.208;2022-08-25T02:28:58;19.50;99.90
21811;DHT22;11067;48.788;9.208;2022-08-25T02:31:24;19.60;99.90
21811;DHT22;11067;48.788;9.208;2022-08-25T02:33:50;19.60;99.90
21811;DHT22;11067;48.788;9.208;2022-08-25T02:36:16;19.70;99.90
21811;DHT22;11067;48.788;9.208;2022-08-25T02:38:41;19.70;99.90
21811;DHT22;11067;48.788;9.208;2022-08-25T02:41:13;19.70;99.90
21811;DHT22;11067;48.788;9.208;2022-08-25T02:43:40;19.60;99.90
21811;DHT22;11067;48.788;9.208;2022-08-25T02:46:06;19.50;99.90
21811;DHT22;11067;48.788;9.208;2022-08-25T02:48:32;19.60;99.90
21811;DHT22;11067;48.788;9.208;2022-08-25T02:50:59;19.60;99.90
21811;DHT22;11067;48.788;9.208;2022-08-25T02:53:26;19.60;99.90
21811;DHT22;11067;48.788;9.208;2022-08-25T02:55:53;19.60;99.90
21811;DHT22;11067;48.788;9.208;2022-08-25T02:58:19;19.60;99.90
21811;DHT22;11067;48.788;9.208;2022-08-25T03:00:46;19.50;99.90
21811;DHT22;11067;48.788;9.208;2022-08-25T03:03:11;19.50;99.90
21811;DHT22;11067;48.788;9.208;2022-08-25T03:05:37;19.60;99.90
21811;DHT22;11067;48.788;9.208;2022-08-25T03:08:04;19.50;99.90
21811;DHT22;11067;48.788;9.208;2022-08-25T03:10:29;19.50;99.90
21811;DHT22;11067;48.788;9.208;2022-08-25T03:12:55;19.50;99.90
21811;DHT22;11067;48.788;9.208;2022-08-25T03:15:20;19.50;99.90
21811;DHT22;11067;48.788;9.208;2022-08-25T03:17:47;19.40;99.90
21811;DHT22;11067;48.788;9.208;2022-08-25T03:20:14;19.40;99.90
21811;DHT22;11067;48.788;9.208;2022-08-25T03:22:39;19.40;99.90
21811;DHT22;11067;48.788;9.208;2022-08-25T03:25:06;19.40;99.90
21811;DHT22;11067;48.788;9.208;2022-08-25T03:27:51;19.30;99.90
21811;DHT22;11067;48.788;9.208;2022-08-25T03:30:16;19.30;99.90
21811;DHT22;11067;48.788;9.208;2022-08-25T03:32:42;19.30;99.90
21811;DHT22;11067;48.788;9.208;2022-08-25T03:35:08;19.30;99.90
21811;DHT22;11067;48.788;9.208;2022-08-25T03:37:35;19.30;99.90
21811;DHT22;11067;48.788;9.208;2022-08-25T03:40:03;19.30;99.90
21811;DHT22;11067;48.788;9.208;2022-08-25T03:42:29;19.20;99.90
21811;DHT22;11067;48.788;9.208;2022-08-25T03:44:54;19.10;99.90
21811;DHT22;11067;48.788;9.208;2022-08-25T03:47:20;19.10;99.90
21811;DHT22;11067;48.788;9.208;2022-08-25T03:49:49;19.10;99.90
21811;DHT22;11067;48.788;9.208;2022-08-25T03:52:14;19.00;99.90
21811;DHT22;11067;48.788;9.208;2022-08-25T03:54:42;19.10;99.90
21811;DHT22;11067;48.788;9.208;2022-08-25T03:57:08;19.10;99.90
21811;DHT22;11067;48.788;9.208;2022-08-25T03:59:34;19.00;99.90
21811;DHT22;11067;48.788;9.208;2022-08-25T04:02:03;18.90;99.90
21811;DHT22;11067;48.788;9.208;2022-08-25T04:04:28;18.80;99.90
21811;DHT22;11067;48.788;9.208;2022-08-25T04:06:54;18.80;99.90
21811;DHT22;11067;48.788;9.208;2022-08-25T04:09:20;18.70;99.90
21811;DHT22;11067;48.788;9.208;2022-08-25T04:11:45;18.80;99.90
21811;DHT22;11067;48.788;9.208;2022-08-25T04:14:11;18.80;99.90
21811;DHT22;11067;48.788;9.208;2022-08-25T04:16:37;18.80;99.90
21811;DHT22;11067;48.788;9.208;2022-08-25T04:19:05;18.70;99.90
21811;DHT22;11067;48.788;9.208;2022-08-25T04:21:31;18.60;99.90
21811;DHT22;11067;48.788;9.208;2022-08-25T04:23:57;18.60;99.90
21811;DHT22;11067;48.788;9.208;2022-08-25T04:26:35;18.50;99.90
21811;DHT22;11067;48.788;9.208;2022-08-25T04:29:02;18.50;99.90
21811;DHT22;11067;48.788;9.208;2022-08-25T04:31:29;18.50;99.90
21811;DHT22;11067;48.788;9.208;2022-08-25T04:33:55;18.60;99.90
21811;DHT22;11067;48.788;9.208;2022-08-25T04:36:21;18.60;99.90
21811;DHT22;11067;48.788;9.208;2022-08-25T04:38:48;18.60;99.90
21811;DHT22;11067;48.788;9.208;2022-08-25T04:41:16;18.60;99.90
21811;DHT22;11067;48.788;9.208;2022-08-25T04:43:43;18.60;99.90
21811;DHT22;11067;48.788;9.208;2022-08-25T04:46:29;18.60;99.90
21811;DHT22;11067;48.788;9.208;2022-08-25T04:48:56;18.50;99.90
21811;DHT22;11067;48.788;9.208;2022-08-25T04:51:26;18.60;99.90
21811;DHT22;11067;48.788;9.208;2022-08-25T04:53:52;18.50;99.90
21811;DHT22;11067;48.788;9.208;2022-08-25T04:56:20;18.50;99.90
21811;DHT22;11067;48.788;9.208;2022-08-25T04:58:47;18.60;99.90
21811;DHT22;11067;48.788;9.208;2022-08-25T05:01:18;18.60;99.90
21811;DHT22;11067;48.788;9.208;2022-08-25T05:03:45;18.70;99.90
21811;DHT22;11067;48.788;9.208;2022-08-25T05:06:12;18.90;99.90
21811;DHT22;11067;48.788;9.208;2022-08-25T05:08:38;19.10;99.90
21811;DHT22;11067;48.788;9.208;2022-08-25T05:11:11;19.20;99.90
21811;DHT22;11067;48.788;9.208;2022-08-25T05:13:42;19.30;99.90
21811;DHT22;11067;48.788;9.208;2022-08-25T05:16:08;19.40;99.90
21811;DHT22;11067;48.788;9.208;2022-08-25T05:18:34;19.60;99.90
21811;DHT22;11067;48.788;9.208;2022-08-25T05:21:05;19.90;99.90
21811;DHT22;11067;48.788;9.208;2022-08-25T05:23:31;20.30;99.90
21811;DHT22;11067;48.788;9.208;2022-08-25T05:26:02;20.30;99.90
21811;DHT22;11067;48.788;9.208;2022-08-25T05:28:28;20.40;99.90
21811;DHT22;11067;48.788;9.208;2022-08-25T05:30:57;20.90;99.90
21811;DHT22;11067;48.788;9.208;2022-08-25T05:33:23;21.20;99.90
21811;DHT22;11067;48.788;9.208;2022-08-25T05:35:49;21.50;99.90
21811;DHT22;11067;48.788;9.208;2022-08-25T05:38:14;21.80;99.90
21811;DHT22;11067;48.788;9.208;2022-08-25T05:40:40;21.70;99.90
21811;DHT22;11067;48.788;9.208;2022-08-25T05:43:05;21.80;99.90
21811;DHT22;11067;48.788;9.208;2022-08-25T05:45:31;21.70;99.90
21811;DHT22;11067;48.788;9.208;2022-08-25T05:47:56;21.80;99.90
21811;DHT22;11067;48.788;9.208;2022-08-25T05:50:22;21.20;99.90
21811;DHT22;11067;48.788;9.208;2022-08-25T05:52:48;21.20;99.90
21811;DHT22;11067;48.788;9.208;2022-08-25T05:55:13;21.00;99.90
21811;DHT22;11067;48.788;9.208;2022-08-25T05:57:40;21.30;99.90
21811;DHT22;11067;48.788;9.208;2022-08-25T06:00:08;21.60;99.90
21811;DHT22;11067;48.788;9.208;2022-08-25T06:02:33;21.70;99.90
21811;DHT22;11067;48.788;9.208;2022-08-25T06:05:13;22.00;99.90
21811;DHT22;11067;48.788;9.208;2022-08-25T06:07:39;22.60;99.90
21811;DHT22;11067;48.788;9.208;2022-08-25T06:10:06;22.00;99.90
21811;DHT22;11067;48.788;9.208;2022-08-25T06:12:36;21.40;99.90
21811;DHT22;11067;48.788;9.208;2022-08-25T06:15:02;21.50;99.90
21811;DHT22;11067;48.788;9.208;2022-08-25T06:17:28;20.60;99.90
21811;DHT22;11067;48.788;9.208;2022-08-25T06:19:54;21.00;99.90
21811;DHT22;11067;48.788;9.208;2022-08-25T06:22:20;21.10;99.90
21811;DHT22;11067;48.788;9.208;2022-08-25T06:24:47;20.70;99.90
21811;DHT22;11067;48.788;9.208;2022-08-25T06:27:13;20.70;99.90
21811;DHT22;11067;48.788;9.208;2022-08-25T06:29:39;20.70;99.90
21811;DHT22;11067;48.788;9.208;2022-08-25T06:32:04;20.70;99.90
21811;DHT22;11067;48.788;9.208;2022-08-25T06:34:30;20.80;99.90
21811;DHT22;11067;48.788;9.208;2022-08-25T06:36:56;21.20;99.90
21811;DHT22;11067;48.788;9.208;2022-08-25T06:39:22;21.40;99.90
21811;DHT22;11067;48.788;9.208;2022-08-25T06:41:55;21.30;99.90
21811;DHT22;11067;48.788;9.208;2022-08-25T06:44:21;21.30;99.90
21811;DHT22;11067;48.788;9.208;2022-08-25T06:46:48;21.00;99.90
21811;DHT22;11067;48.788;9.208;2022-08-25T06:49:13;21.10;99.90
21811;DHT22;11067;48.788;9.208;2022-08-25T06:51:39;21.30;99.90
21811;DHT22;11067;48.788;9.208;2022-08-25T06:54:07;21.60;99.90
21811;DHT22;11067;48.788;9.208;2022-08-25T06:56:35;21.90;99.90
21811;DHT22;11067;48.788;9.208;2022-08-25T06:59:04;21.90;99.90
21811;DHT22;11067;48.788;9.208;2022-08-25T07:01:30;22.10;99.90
21811;DHT22;11067;48.788;9.208;2022-08-25T07:03:58;22.00;99.90
21811;DHT22;11067;48.788;9.208;2022-08-25T07:06:25;22.00;99.90
21811;DHT22;11067;48.788;9.208;2022-08-25T07:08:51;22.10;99.90
21811;DHT22;11067;48.788;9.208;2022-08-25T07:11:18;22.30;99.90
21811;DHT22;11067;48.788;9.208;2022-08-25T07:13:46;22.40;99.90
21811;DHT22;11067;48.788;9.208;2022-08-25T07:16:12;22.40;99.90
21811;DHT22;11067;48.788;9.208;2022-08-25T07:18:40;22.60;99.90
21811;DHT22;11067;48.788;9.208;2022-08-25T07:21:06;22.80;99.90
21811;DHT22;11067;48.788;9.208;2022-08-25T07:23:32;22.90;99.90
21811;DHT22;11067;48.788;9.208;2022-08-25T07:26:10;22.80;99.90
21811;DHT22;11067;48.788;9.208;2022-08-25T07:28:36;22.90;99.90
21811;DHT22;11067;48.788;9.208;2022-08-25T07:31:03;22.90;99.90
21811;DHT22;11067;48.788;9.208;2022-08-25T07:33:29;23.00;99.90
21811;DHT22;11067;48.788;9.208;2022-08-25T07:35:54;23.10;99.90
21811;DHT22;11067;48.788;9.208;2022-08-25T07:38:20;23.30;99.90
21811;DHT22;11067;48.788;9.208;2022-08-25T07:40:46;23.20;99.90
21811;DHT22;11067;48.788;9.208;2022-08-25T07:43:19;23.20;99.90
21811;DHT22;11067;48.788;9.208;2022-08-25T07:45:44;23.40;99.90
21811;DHT22;11067;48.788;9.208;2022-08-25T07:48:11;23.50;99.90
21811;DHT22;11067;48.788;9.208;2022-08-25T07:50:39;23.60;99.90
21811;DHT22;11067;48.788;9.208;2022-08-25T07:53:07;23.50;99.90
21811;DHT22;11067;48.788;9.208;2022-08-25T07:55:34;23.60;99.90
21811;DHT22;11067;48.788;9.208;2022-08-25T07:58:01;23.80;99.90
21811;DHT22;11067;48.788;9.208;2022-08-25T08:00:30;23.70;99.90
21811;DHT22;11067;48.788;9.208;2022-08-25T08:02:59;23.50;99.90
21811;DHT22;11067;48.788;9.208;2022-08-25T08:05:26;23.80;99.90
21811;DHT22;11067;48.788;9.208;2022-08-25T08:07:53;24.10;99.90
21811;DHT22;11067;48.788;9.208;2022-08-25T08:10:19;24.10;99.90
21811;DHT22;11067;48.788;9.208;2022-08-25T08:12:45;24.00;99.90
21811;DHT22;11067;48.788;9.208;2022-08-25T08:15:11;24.30;99.90
21811;DHT22;11067;48.788;9.208;2022-08-25T08:17:37;24.00;99.90
21811;DHT22;11067;48.788;9.208;2022-08-25T08:20:04;24.30;99.90
21811;DHT22;11067;48.788;9.208;2022-08-25T08:22:37;24.50;99.90
21811;DHT22;11067;48.788;9.208;2022-08-25T08:25:03;24.30;99.90
21811;DHT22;11067;48.788;9.208;2022-08-25T08:27:29;24.50;99.90
21811;DHT22;11067;48.788;9.208;2022-08-25T08:29:54;24.90;99.90
21811;DHT22;11067;48.788;9.208;2022-08-25T08:32:20;25.20;99.90
21811;DHT22;11067;48.788;9.208;2022-08-25T08:34:46;25.50;99.90
21811;DHT22;11067;48.788;9.208;2022-08-25T08:37:12;25.30;99.90
21811;DHT22;11067;48.788;9.208;2022-08-25T08:39:38;25.60;99.90
21811;DHT22;11067;48.788;9.208;2022-08-25T08:45:03;25.60;99.90
21811;DHT22;11067;48.788;9.208;2022-08-25T08:47:51;25.60;99.90
21811;DHT22;11067;48.788;9.208;2022-08-25T08:56:37;26.30;99.90
21811;DHT22;11067;48.788;9.208;2022-08-25T08:59:04;26.30;99.90
21811;DHT22;11067;48.788;9.208;2022-08-25T09:01:41;26.10;99.90
21811;DHT22;11067;48.788;9.208;2022-08-25T09:04:25;26.30;99.90
21811;DHT22;11067;48.788;9.208;2022-08-25T09:06:51;26.70;99.90
21811;DHT22;11067;48.788;9.208;2022-08-25T09:09:25;26.80;99.90
21811;DHT22;11067;48.788;9.208;2022-08-25T09:12:07;26.90;99.90
21811;DHT22;11067;48.788;9.208;2022-08-25T09:14:53;26.60;99.90
21811;DHT22;11067;48.788;9.208;2022-08-25T09:29:13;27.40;99.90
21811;DHT22;11067;48.788;9.208;2022-08-25T09:31:40;27.40;99.90
21811;DHT22;11067;48.788;9.208;2022-08-25T09:34:27;27.20;99.90
21811;DHT22;11067;48.788;9.208;2022-08-25T09:36:54;27.20;99.90
21811;DHT22;11067;48.788;9.208;2022-08-25T09:39:21;26.90;99.90
21811;DHT22;11067;48.788;9.208;2022-08-25T09:41:55;27.20;99.90
21811;DHT22;11067;48.788;9.208;2022-08-25T09:44:54;27.00;99.90
21811;DHT22;11067;48.788;9.208;2022-08-25T09:47:24;27.20;99.90
21811;DHT22;11067;48.788;9.208;2022-08-25T09:49:59;27.20;99.90
21811;DHT22;11067;48.788;9.208;2022-08-25T09:54:59;27.00;99.90
21811;DHT22;11067;48.788;9.208;2022-08-25T10:02:38;27.60;99.90
21811;DHT22;11067;48.788;9.208;2022-08-25T10:05:23;27.80;99.90
21811;DHT22;11067;48.788;9.208;2022-08-25T10:08:00;27.70;99.90
21811;DHT22;11067;48.788;9.208;2022-08-25T10:10:51;27.80;99.90
21811;DHT22;11067;48.788;9.208;2022-08-25T10:13:18;28.20;99.90
21811;DHT22;11067;48.788;9.208;2022-08-25T10:15:44;28.10;99.90
21811;DHT22;11067;48.788;9.208;2022-08-25T10:18:25;28.20;99.90
21811;DHT22;11067;48.788;9.208;2022-08-25T10:23:26;28.00;99.90
21811;DHT22;11067;48.788;9.208;2022-08-25T10:25:53;28.00;99.90
21811;DHT22;11067;48.788;9.208;2022-08-25T10:31:18;28.50;99.90
21811;DHT22;11067;48.788;9.208;2022-08-25T10:36:52;29.20;99.90
21811;DHT22;11067;48.788;9.208;2022-08-25T10:39:33;29.10;99.90
21811;DHT22;11067;48.788;9.208;2022-08-25T10:42:51;28.80;99.90
21811;DHT22;11067;48.788;9.208;2022-08-25T10:45:24;28.50;99.90
21811;DHT22;11067;48.788;9.208;2022-08-25T10:49:10;28.70;99.90
21811;DHT22;11067;48.788;9.208;2022-08-25T10:51:44;29.00;99.90
21811;DHT22;11067;48.788;9.208;2022-08-25T10:54:51;29.00;99.90
21811;DHT22;11067;48.788;9.208;2022-08-25T11:00:17;28.50;99.90
21811;DHT22;11067;48.788;9.208;2022-08-25T11:05:50;28.00;99.90
21811;DHT22;11067;48.788;9.208;2022-08-25T11:08:32;27.90;99.90
21811;DHT22;11067;48.788;9.208;2022-08-25T11:11:19;28.50;99.90
21811;DHT22;11067;48.788;9.208;2022-08-25T11:14:04;28.60;99.90
21811;DHT22;11067;48.788;9.208;2022-08-25T11:16:41;28.40;99.90
21811;DHT22;11067;48.788;9.208;2022-08-25T11:19:21;28.60;99.90
21811;DHT22;11067;48.788;9.208;2022-08-25T11:30:10;29.00;99.90
21811;DHT22;11067;48.788;9.208;2022-08-25T11:32:37;29.30;99.90
21811;DHT22;11067;48.788;9.208;2022-08-25T11:35:09;29.70;99.90
21811;DHT22;11067;48.788;9.208;2022-08-25T11:37:43;29.10;99.90
21811;DHT22;11067;48.788;9.208;2022-08-25T11:40:37;29.30;99.90
21811;DHT22;11067;48.788;9.208;2022-08-25T11:45:57;29.70;99.90
21811;DHT22;11067;48.788;9.208;2022-08-25T11:51:47;30.10;99.90
21811;DHT22;11067;48.788;9.208;2022-08-25T11:54:23;30.20;99.90
21811;DHT22;11067;48.788;9.208;2022-08-25T11:57:04;29.70;99.90
21811;DHT22;11067;48.788;9.208;2022-08-25T12:02:34;29.20;99.90
21811;DHT22;11067;48.788;9.208;2022-08-25T12:10:16;29.60;99.90
21811;DHT22;11067;48.788;9.208;2022-08-25T12:12:59;29.60;99.90
21811;DHT22;11067;48.788;9.208;2022-08-25T12:15:59;29.70;99.90
21811;DHT22;11067;48.788;9.208;2022-08-25T12:23:28;30.00;99.90
21811;DHT22;11067;48.788;9.208;2022-08-25T12:25:57;30.00;99.90
21811;DHT22;11067;48.788;9.208;2022-08-25T12:28:38;29.80;99.90
21811;DHT22;11067;48.788;9.208;2022-08-25T12:31:20;29.70;99.90
21811;DHT22;11067;48.788;9.208;2022-08-25T12:36:33;29.80;99.90
21811;DHT22;11067;48.788;9.208;2022-08-25T12:39:18;29.80;99.90
21811;DHT22;11067;48.788;9.208;2022-08-25T12:42:00;30.10;99.90
21811;DHT22;11067;48.788;9.208;2022-08-25T12:44:42;30.00;99.90
21811;DHT22;11067;48.788;9.208;2022-08-25T12:47:26;30.40;99.90
21811;DHT22;11067;48.788;9.208;2022-08-25T12:49:53;30.40;99.90
21811;DHT22;11067;48.788;9.208;2022-08-25T12:52:38;30.20;99.90
21811;DHT22;11067;48.788;9.208;2022-08-25T12:55:04;30.30;99.90
21811;DHT22;11067;48.788;9.208;2022-08-25T13:00:19;29.80;99.90
21811;DHT22;11067;48.788;9.208;2022-08-25T13:06:05;30.40;99.90
21811;DHT22;11067;48.788;9.208;2022-08-25T13:09:17;30.60;99.90
21811;DHT22;11067;48.788;9.208;2022-08-25T13:12:12;30.20;99.90
21811;DHT22;11067;48.788;9.208;2022-08-25T13:14:42;30.20;99.90
21811;DHT22;11067;48.788;9.208;2022-08-25T13:17:09;30.00;99.90
21811;DHT22;11067;48.788;9.208;2022-08-25T13:19:35;30.30;99.90
21811;DHT22;11067;48.788;9.208;2022-08-25T13:22:12;30.70;99.90
21811;DHT22;11067;48.788;9.208;2022-08-25T13:24:42;30.60;99.90
21811;DHT22;11067;48.788;9.208;2022-08-25T13:27:19;30.50;99.90
21811;DHT22;11067;48.788;9.208;2022-08-25T13:29:51;30.10;99.90
21811;DHT22;11067;48.788;9.208;2022-08-25T13:32:28;30.50;99.90
21811;DHT22;11067;48.788;9.208;2022-08-25T13:35:11;30.80;99.90
21811;DHT22;11067;48.788;9.208;2022-08-25T13:37:38;30.80;99.90
21811;DHT22;11067;48.788;9.208;2022-08-25T13:40:25;30.50;99.90
21811;DHT22;11067;48.788;9.208;2022-08-25T13:42:54;30.70;99.90
21811;DHT22;11067;48.788;9.208;2022-08-25T13:45:23;30.90;99.90
21811;DHT22;11067;48.788;9.208;2022-08-25T13:47:49;31.20;99.90
21811;DHT22;11067;48.788;9.208;2022-08-25T13:50:36;31.10;99.90
21811;DHT22;11067;48.788;9.208;2022-08-25T13:55:37;31.60;99.90
21811;DHT22;11067;48.788;9.208;2022-08-25T13:58:04;31.80;99.90
21811;DHT22;11067;48.788;9.208;2022-08-25T14:00:39;32.10;99.90
21811;DHT22;11067;48.788;9.208;2022-08-25T14:03:05;32.00;99.90
21811;DHT22;11067;48.788;9.208;2022-08-25T14:05:41;31.30;99.90
21811;DHT22;11067;48.788;9.208;2022-08-25T14:08:30;31.20;99.90
21811;DHT22;11067;48.788;9.208;2022-08-25T14:13:31;30.70;99.90
21811;DHT22;11067;48.788;9.208;2022-08-25T14:16:19;30.70;99.90
21811;DHT22;11067;48.788;9.208;2022-08-25T14:18:48;30.70;99.90
21811;DHT22;11067;48.788;9.208;2022-08-25T14:21:15;31.10;99.90
21811;DHT22;11067;48.788;9.208;2022-08-25T14:23:41;31.20;99.90
21811;DHT22;11067;48.788;9.208;2022-08-25T14:26:07;31.60;99.90
21811;DHT22;11067;48.788;9.208;2022-08-25T14:28:33;31.20;99.90
21811;DHT22;11067;48.788;9.208;2022-08-25T14:30:59;31.10;99.90
21811;DHT22;11067;48.788;9.208;2022-08-25T14:33:39;31.20;99.90
21811;DHT22;11067;48.788;9.208;2022-08-25T14:36:06;31.20;99.90
21811;DHT22;11067;48.788;9.208;2022-08-25T14:38:33;31.50;99.90
21811;DHT22;11067;48.788;9.208;2022-08-25T14:40:58;31.80;99.90
21811;DHT22;11067;48.788;9.208;2022-08-25T14:43:24;31.90;99.90
21811;DHT22;11067;48.788;9.208;2022-08-25T14:45:50;32.00;99.90
21811;DHT22;11067;48.788;9.208;2022-08-25T14:48:23;31.30;99.90
21811;DHT22;11067;48.788;9.208;2022-08-25T14:50:50;31.00;99.90
21811;DHT22;11067;48.788;9.208;2022-08-25T14:53:16;31.20;99.90
21811;DHT22;11067;48.788;9.208;2022-08-25T14:55:41;31.20;99.90
21811;DHT22;11067;48.788;9.208;2022-08-25T14:58:07;31.10;99.90
21811;DHT22;11067;48.788;9.208;2022-08-25T15:00:36;31.00;99.90
21811;DHT22;11067;48.788;9.208;2022-08-25T15:03:03;31.00;99.90
21811;DHT22;11067;48.788;9.208;2022-08-25T15:05:29;30.80;99.90
21811;DHT22;11067;48.788;9.208;2022-08-25T15:07:56;30.80;99.90
21811;DHT22;11067;48.788;9.208;2022-08-25T15:10:41;30.50;99.90
21811;DHT22;11067;48.788;9.208;2022-08-25T15:13:06;30.70;99.90
21811;DHT22;11067;48.788;9.208;2022-08-25T15:15:37;30.80;99.90
21811;DHT22;11067;48.788;9.208;2022-08-25T15:18:03;30.60;99.90
21811;DHT22;11067;48.788;9.208;2022-08-25T15:20:29;30.90;99.90
21811;DHT22;11067;48.788;9.208;2022-08-25T15:22:55;31.10;99.90
21811;DHT22;11067;48.788;9.208;2022-08-25T15:25:21;30.50;99.90
21811;DHT22;11067;48.788;9.208;2022-08-25T15:27:47;30.30;99.90
21811;DHT22;11067;48.788;9.208;2022-08-25T15:30:13;30.40;99.90
21811;DHT22;11067;48.788;9.208;2022-08-25T15:32:39;30.50;99.90
21811;DHT22;11067;48.788;9.208;2022-08-25T15:35:05;30.20;99.90
21811;DHT22;11067;48.788;9.208;2022-08-25T15:37:31;30.20;99.90
21811;DHT22;11067;48.788;9.208;2022-08-25T15:39:56;30.20;99.90
21811;DHT22;11067;48.788;9.208;2022-08-25T15:42:22;30.10;99.90
21811;DHT22;11067;48.788;9.208;2022-08-25T15:44:49;30.20;99.90
21811;DHT22;11067;48.788;9.208;2022-08-25T15:47:15;30.10;99.90
21811;DHT22;11067;48.788;9.208;2022-08-25T15:49:41;30.20;99.90
21811;DHT22;11067;48.788;9.208;2022-08-25T15:52:07;30.30;99.90
21811;DHT22;11067;48.788;9.208;2022-08-25T15:54:32;30.30;99.90
21811;DHT22;11067;48.788;9.208;2022-08-25T15:56:58;30.20;99.90
21811;DHT22;11067;48.788;9.208;2022-08-25T15:59:25;30.30;99.90
21811;DHT22;11067;48.788;9.208;2022-08-25T16:01:51;30.10;99.90
21811;DHT22;11067;48.788;9.208;2022-08-25T16:04:21;30.10;99.90
21811;DHT22;11067;48.788;9.208;2022-08-25T16:06:47;30.00;99.90
21811;DHT22;11067;48.788;9.208;2022-08-25T16:09:12;30.10;99.90
21811;DHT22;11067;48.788;9.208;2022-08-25T16:11:38;30.40;99.90
21811;DHT22;11067;48.788;9.208;2022-08-25T16:14:04;30.60;99.90
21811;DHT22;11067;48.788;9.208;2022-08-25T16:16:30;30.70;99.90
21811;DHT22;11067;48.788;9.208;2022-08-25T16:18:57;30.50;99.90
21811;DHT22;11067;48.788;9.208;2022-08-25T16:21:25;30.30;99.90
21811;DHT22;11067;48.788;9.208;2022-08-25T16:23:59;30.20;99.90
21811;DHT22;11067;48.788;9.208;2022-08-25T16:26:25;30.10;99.90
21811;DHT22;11067;48.788;9.208;2022-08-25T16:28:51;30.20;99.90
21811;DHT22;11067;48.788;9.208;2022-08-25T16:31:16;30.10;99.90
21811;DHT22;11067;48.788;9.208;2022-08-25T16:33:42;29.90;99.90
21811;DHT22;11067;48.788;9.208;2022-08-25T16:36:14;29.80;99.90
21811;DHT22;11067;48.788;9.208;2022-08-25T16:38:41;30.00;99.90
21811;DHT22;11067;48.788;9.208;2022-08-25T16:41:08;29.80;99.90
21811;DHT22;11067;48.788;9.208;2022-08-25T16:43:34;29.90;99.90
21811;DHT22;11067;48.788;9.208;2022-08-25T16:46:03;30.00;99.90
21811;DHT22;11067;48.788;9.208;2022-08-25T16:48:29;30.00;99.90
21811;DHT22;11067;48.788;9.208;2022-08-25T16:50:56;29.90;99.90
21811;DHT22;11067;48.788;9.208;2022-08-25T16:53:21;29.80;99.90
21811;DHT22;11067;48.788;9.208;2022-08-25T16:56:06;29.70;99.90
21811;DHT22;11067;48.788;9.208;2022-08-25T16:58:33;29.80;99.90
21811;DHT22;11067;48.788;9.208;2022-08-25T17:01:06;29.70;99.90
21811;DHT22;11067;48.788;9.208;2022-08-25T17:03:33;29.70;99.90
21811;DHT22;11067;48.788;9.208;2022-08-25T17:05:59;29.80;99.90
21811;DHT22;11067;48.788;9.208;2022-08-25T17:08:25;29.60;99.90
21811;DHT22;11067;48.788;9.208;2022-08-25T17:11:06;29.60;99.90
21811;DHT22;11067;48.788;9.208;2022-08-25T17:13:32;29.60;99.90